TimeEST,TemperatureF,Dew PointF,Humidity,Sea Level PressureIn,VisibilityMPH,Wind Direction,Wind SpeedMPH,Gust SpeedMPH,PrecipitationIn,Events,Conditions,WindDirDegrees,DateUTC
12:53 AM,34.0,26.1,73,29.86,10.0,WSW,6.9,-,N/A,,Overcast,250,2013-01-01 05:53:00
2:19 AM,33.8,23.0,65,29.85,10.0,West,12.7,23.0,N/A,,Overcast,280,2013-01-01 07:19:00
2:53 AM,33.1,21.9,64,29.90,10.0,WNW,9.2,-,N/A,,Overcast,290,2013-01-01 07:53:00
4:01 AM,32.0,21.2,64,29.87,10.0,West,8.1,-,N/A,,Overcast,280,2013-01-01 09:01:00
4:53 AM,30.9,21.0,67,29.91,10.0,WNW,9.2,-,N/A,,Overcast,290,2013-01-01 09:53:00
5:19 AM,30.2,19.4,64,29.88,10.0,NW,10.4,-,N/A,,Overcast,310,2013-01-01 10:19:00
5:53 AM,28.9,19.9,69,29.92,10.0,NW,9.2,-,N/A,,Overcast,320,2013-01-01 10:53:00
6:53 AM,28.9,19.0,67,29.94,10.0,WNW,9.2,-,N/A,,Overcast,290,2013-01-01 11:53:00
7:53 AM,28.0,17.1,63,29.95,10.0,WNW,5.8,-,N/A,,Overcast,300,2013-01-01 12:53:00
8:53 AM,27.0,15.1,61,29.97,10.0,West,8.1,17.3,N/A,,Overcast,280,2013-01-01 13:53:00
9:53 AM,27.0,15.1,61,29.98,10.0,WNW,10.4,18.4,N/A,,Overcast,290,2013-01-01 14:53:00
10:48 AM,26.6,15.8,64,29.96,10.0,West,6.9,18.4,0.00,,Overcast,280,2013-01-01 15:48:00
10:53 AM,27.0,16.0,63,29.99,10.0,WNW,10.4,17.3,0.00,,Overcast,290,2013-01-01 15:53:00
11:30 AM,24.8,19.4,80,29.95,2.0,North,12.7,18.4,0.00,Snow,Light Snow,350,2013-01-01 16:30:00
11:39 AM,23.0,17.6,80,29.95,1.0,NNW,12.7,18.4,0.00,Snow,Light Snow,330,2013-01-01 16:39:00
11:45 AM,23.0,17.6,80,29.95,0.8,NNW,10.4,17.3,0.00,Snow,Light Snow,340,2013-01-01 16:45:00
11:53 AM,23.0,18.0,81,30.00,0.8,NW,11.5,17.3,0.00,Snow,Light Snow,320,2013-01-01 16:53:00
12:13 PM,23.0,17.6,80,29.96,1.0,NW,9.2,-,0.00,Snow,Light Snow,310,2013-01-01 17:13:00
12:24 PM,23.0,17.6,80,29.94,1.0,NNW,10.4,-,0.00,Snow,Light Snow,340,2013-01-01 17:24:00
1:03 PM,23.0,15.8,74,29.95,2.0,NW,12.7,-,0.00,Snow,Light Snow,320,2013-01-01 18:03:00
1:09 PM,23.0,17.6,80,29.94,1.8,NW,9.2,-,0.00,Snow,Light Snow,320,2013-01-01 18:09:00
1:16 PM,23.0,15.8,74,29.94,2.5,NW,12.7,21.9,0.00,Snow,Light Snow,310,2013-01-01 18:16:00
1:25 PM,23.0,15.8,74,29.93,6.0,WNW,6.9,21.9,0.00,Snow,Light Snow,300,2013-01-01 18:25:00
1:53 PM,23.0,14.0,68,29.96,5.0,NW,12.7,-,0.00,Snow,Light Snow,310,2013-01-01 18:53:00
2:48 PM,21.2,12.2,68,29.95,10.0,NW,11.5,17.3,0.00,,Overcast,310,2013-01-01 19:48:00
2:53 PM,21.9,10.9,63,29.99,10.0,NW,11.5,-,0.00,,Overcast,320,2013-01-01 19:53:00
3:53 PM,21.9,10.0,60,30.00,10.0,NNW,5.8,-,N/A,,Overcast,330,2013-01-01 20:53:00
4:21 PM,19.4,10.4,68,29.96,10.0,NW,10.4,-,N/A,,Overcast,320,2013-01-01 21:21:00
4:32 PM,19.4,8.6,63,29.96,10.0,NW,6.9,-,N/A,,Mostly Cloudy,310,2013-01-01 21:32:00
4:53 PM,19.0,9.0,65,30.01,10.0,NW,3.5,-,N/A,,Clear,310,2013-01-01 21:53:00
5:53 PM,17.1,8.1,68,30.03,10.0,Calm,Calm,-,N/A,,Clear,0,2013-01-01 22:53:00
6:53 PM,17.1,9.0,71,30.05,10.0,Variable,4.6,-,N/A,,Clear,0,2013-01-01 23:53:00
7:53 PM,16.0,8.1,71,30.05,10.0,Calm,Calm,-,N/A,,Clear,0,2013-01-02 00:53:00
8:53 PM,15.1,8.1,74,30.05,10.0,SSW,5.8,-,N/A,,Clear,210,2013-01-02 01:53:00
9:53 PM,12.9,8.1,81,30.05,10.0,SSW,5.8,-,N/A,,Clear,210,2013-01-02 02:53:00
10:53 PM,12.9,8.1,81,30.05,10.0,South,5.8,-,N/A,,Clear,180,2013-01-02 03:53:00
11:53 PM,12.0,10.0,92,30.05,10.0,SSW,6.9,-,N/A,,Clear,210,2013-01-02 04:53:00